createdAt,value
2023-02-12T00:02:11.070Z,102008.09
2023-02-12T00:04:38.815Z,102002.00
2023-02-12T00:07:06.920Z,102001.09
2023-02-12T00:09:34.613Z,102000.22
2023-02-12T00:12:02.630Z,102006.41
2023-02-12T00:14:30.277Z,102006.47
2023-02-12T00:16:57.936Z,101995.94
2023-02-12T00:19:25.608Z,101992.41
2023-02-12T00:21:53.254Z,101989.75
2023-02-12T00:24:20.931Z,101992.41
2023-02-12T00:26:49.117Z,101990.63
2023-02-12T00:29:17.103Z,101993.28
2023-02-12T00:31:44.857Z,101987.09
2023-02-12T00:34:12.513Z,101991.56
2023-02-12T00:36:40.681Z,101987.19
2023-02-12T00:39:08.864Z,101985.38
2023-02-12T00:41:36.540Z,101993.38
2023-02-12T00:44:04.164Z,101996.03
2023-02-12T00:46:31.907Z,101999.63
2023-02-12T00:48:59.868Z,102005.78
2023-02-12T00:51:28.806Z,102006.72
2023-02-12T00:53:56.434Z,102004.13
2023-02-12T00:56:24.018Z,102000.53
2023-02-12T00:58:51.665Z,101997.88
2023-02-12T01:01:19.342Z,101998.81
2023-02-12T01:03:47.358Z,101996.16
2023-02-12T01:06:14.957Z,101997.09
2023-02-12T01:08:42.622Z,102005.09
2023-02-12T01:11:10.228Z,102000.72
2023-02-12T01:13:38.279Z,102001.63
2023-02-12T01:16:06.893Z,101999.91
2023-02-12T01:18:34.539Z,102000.75
2023-02-12T01:21:02.127Z,101998.19
2023-02-12T01:23:29.789Z,101996.38
2023-02-12T01:25:57.919Z,101992.91
2023-02-12T01:28:25.778Z,101991.16
2023-02-12T01:30:53.598Z,101989.38
2023-02-12T01:33:21.497Z,101995.56
2023-02-12T01:35:49.156Z,101991.19
2023-02-12T01:38:17.175Z,101988.59
2023-02-12T01:40:44.943Z,101989.50
2023-02-12T01:43:12.725Z,101993.94
2023-02-12T01:45:41.458Z,101990.50
2023-02-12T01:48:09.114Z,101996.72
2023-02-12T01:50:36.718Z,101991.47
2023-02-12T01:53:04.377Z,101990.63
2023-02-12T01:55:31.993Z,101995.03
2023-02-12T01:57:59.946Z,101988.00
2023-02-12T02:00:27.612Z,101979.19
2023-02-12T02:02:55.587Z,101975.72
2023-02-12T02:05:23.198Z,101976.63
2023-02-12T02:07:50.824Z,101982.88
2023-02-12T02:10:18.429Z,101981.13
2023-02-12T02:13:03.568Z,101976.75
2023-02-12T02:15:31.364Z,101981.19
2023-02-12T02:17:58.927Z,101975.88
2023-02-12T02:20:26.546Z,101975.88
2023-02-12T02:22:54.136Z,101977.69
2023-02-12T02:25:22.166Z,101977.59
2023-02-12T02:27:49.777Z,101965.22
2023-02-12T02:30:17.364Z,101966.03
2023-02-12T02:32:45.015Z,101971.34
2023-02-12T02:35:12.644Z,101975.66
2023-02-12T02:37:40.601Z,101972.09
2023-02-12T02:40:10.127Z,101960.63
2023-02-12T02:42:37.726Z,101958.88
2023-02-12T02:45:05.311Z,101965.00
2023-02-12T02:47:32.895Z,101957.06
2023-02-12T02:50:00.543Z,101969.38
2023-02-12T02:52:28.135Z,101962.34
2023-02-12T02:54:55.711Z,101958.78
2023-02-12T02:57:23.322Z,101962.34
2023-02-12T02:59:50.885Z,101956.16
2023-02-12T03:02:19.103Z,101957.09
2023-02-12T03:04:46.778Z,101957.16
2023-02-12T03:07:14.360Z,101958.06
2023-02-12T03:09:41.976Z,101955.41
2023-02-12T03:12:09.668Z,101961.59
2023-02-12T03:14:37.278Z,101951.00
2023-02-12T03:17:04.907Z,101953.66
2023-02-12T03:19:32.541Z,101961.59
2023-02-12T03:22:00.577Z,101959.78
2023-02-12T03:24:28.195Z,101960.72
2023-02-12T03:26:56.189Z,101952.81
2023-02-12T03:29:23.756Z,101957.28
2023-02-12T03:31:51.383Z,101952.91
2023-02-12T03:34:19.043Z,101960.84
2023-02-12T03:36:46.692Z,101963.50
2023-02-12T03:39:14.457Z,101952.81
2023-02-12T03:41:42.290Z,101955.41
2023-02-12T03:44:10.364Z,101958.88
2023-02-12T03:46:37.978Z,101959.75
2023-02-12T03:49:05.595Z,101968.50
2023-02-12T03:51:33.600Z,101971.13
2023-02-12T03:54:01.189Z,101966.63
2023-02-12T03:56:28.861Z,101969.25
2023-02-12T03:58:56.454Z,101964.84
2023-02-12T04:01:24.210Z,101957.72
2023-02-12T04:03:52.309Z,101968.34
2023-02-12T04:06:19.907Z,101971.88
2023-02-12T04:08:47.517Z,101971.88
2023-02-12T04:11:15.205Z,101978.03
2023-02-12T04:13:42.813Z,101981.56
2023-02-12T04:16:10.473Z,101981.56
2023-02-12T04:18:38.404Z,101978.91
2023-02-12T04:21:06.123Z,101984.22
2023-02-12T04:23:33.701Z,101984.25
2023-02-12T04:26:02.083Z,101986.88
2023-02-12T04:28:30.774Z,101988.63
2023-02-12T04:30:58.816Z,101986.91
2023-02-12T04:33:26.484Z,101994.03
2023-02-12T04:35:54.476Z,102002.81
2023-02-12T04:38:22.332Z,102002.03
2023-02-12T04:40:50.284Z,102004.66
2023-02-12T04:43:18.139Z,102009.97
2023-02-12T04:45:45.761Z,102006.53
2023-02-12T04:48:13.764Z,102004.84
2023-02-12T04:50:41.861Z,102018.97
2023-02-12T04:53:09.521Z,102011.91
2023-02-12T04:55:37.214Z,102013.78
2023-02-12T04:58:04.875Z,102018.16
2023-02-12T05:00:32.473Z,102013.78
2023-02-12T05:03:00.169Z,102012.84
2023-02-12T05:05:28.147Z,102011.06
2023-02-12T05:07:55.964Z,102023.41
2023-02-12T05:10:23.656Z,102013.69
2023-02-12T05:12:51.614Z,102010.16
2023-02-12T05:15:19.225Z,102014.53
2023-02-12T05:17:47.331Z,102013.69
2023-02-12T05:20:14.975Z,102018.97
2023-02-12T05:22:42.882Z,102014.56
2023-02-12T05:25:10.608Z,102020.81
2023-02-12T05:27:38.197Z,102027.00
2023-02-12T05:30:06.665Z,102016.38
2023-02-12T05:32:34.363Z,102014.66
2023-02-12T05:35:02.003Z,102024.38
2023-02-12T05:37:31.559Z,102020.88
2023-02-12T05:39:59.171Z,102027.97
2023-02-12T05:42:26.767Z,102021.78
2023-02-12T05:44:54.363Z,102020.03
2023-02-12T05:47:21.980Z,102026.22
2023-02-12T05:49:49.610Z,102026.19
2023-02-12T05:52:17.236Z,102024.38
2023-02-12T05:54:45.334Z,102024.38
2023-02-12T05:57:12.977Z,102019.06
2023-02-12T05:59:40.570Z,102020.81
2023-02-12T06:02:08.221Z,102018.97
2023-02-12T06:04:35.855Z,102024.28
2023-02-12T06:07:03.880Z,102016.34
2023-02-12T06:09:31.525Z,102014.56
2023-02-12T06:11:59.190Z,102019.06
2023-02-12T06:14:26.815Z,102019.13
2023-02-12T06:16:54.753Z,102026.22
2023-02-12T06:19:22.745Z,102030.66
2023-02-12T06:21:50.593Z,102028.00
2023-02-12T06:24:18.285Z,102027.06
2023-02-12T06:26:45.880Z,102033.31
2023-02-12T06:29:14.229Z,102034.16
2023-02-12T06:31:42.444Z,102032.38
2023-02-12T06:34:10.248Z,102031.50
2023-02-12T06:36:37.904Z,102032.34
2023-02-12T06:39:05.992Z,102033.22
2023-02-12T06:41:33.597Z,102037.66
2023-02-12T06:44:01.240Z,102035.00
2023-02-12T06:46:29.178Z,102035.03
2023-02-12T06:48:56.797Z,102045.59
2023-02-12T06:51:24.429Z,102052.72
2023-02-12T06:53:52.126Z,102047.41
2023-02-12T06:56:20.130Z,102059.78
2023-02-12T06:58:48.009Z,102059.78
2023-02-12T07:01:18.090Z,102058.84
2023-02-12T07:03:45.771Z,102059.75
2023-02-12T07:06:13.522Z,102064.09
2023-02-12T07:08:41.187Z,102068.47
2023-02-12T07:11:08.975Z,102064.94
2023-02-12T07:13:36.652Z,102068.47
2023-02-12T07:16:04.365Z,102075.56
2023-02-12T07:18:31.995Z,102072.13
2023-02-12T07:20:59.997Z,102069.59
2023-02-12T07:23:29.575Z,102074.97
2023-02-12T07:25:57.650Z,102076.78
2023-02-12T07:28:25.435Z,102074.19
2023-02-12T07:30:53.236Z,102083.06
2023-02-12T07:33:21.124Z,102091.84
2023-02-12T07:35:49.121Z,102090.91
2023-02-12T07:38:16.811Z,102092.56
2023-02-12T07:40:44.429Z,102091.63
2023-02-12T07:43:12.031Z,102095.06
2023-02-12T07:45:40.453Z,102102.94
2023-02-12T07:48:08.332Z,102100.16
2023-02-12T07:50:35.921Z,102102.72
2023-02-12T07:53:03.617Z,102106.19
2023-02-12T07:55:31.272Z,102105.22
2023-02-12T07:57:59.323Z,102105.09
2023-02-12T08:00:27.100Z,102105.91
2023-02-12T08:02:54.762Z,102108.47
2023-02-12T08:05:22.438Z,102109.25
2023-02-12T08:07:50.556Z,102110.03
2023-02-12T08:10:22.876Z,102111.69
2023-02-12T08:12:51.062Z,102109.75
2023-02-12T08:15:18.750Z,102116.69
2023-02-12T08:17:46.441Z,102126.25
2023-02-12T08:20:14.299Z,102117.28
2023-02-12T08:22:42.085Z,102114.50
2023-02-12T08:25:09.840Z,102123.19
2023-02-12T08:27:37.667Z,102114.16
2023-02-12T08:30:05.851Z,102112.22
2023-02-12T08:32:33.958Z,102117.31
2023-02-12T08:35:02.098Z,102114.41
2023-02-12T08:37:29.959Z,102112.34
2023-02-12T08:39:57.726Z,102120.03
2023-02-12T08:42:25.927Z,102125.13
2023-02-12T08:44:53.668Z,102123.06
2023-02-12T08:47:21.938Z,102129.88
2023-02-12T08:49:49.699Z,102128.72
2023-02-12T08:52:19.738Z,102130.28
2023-02-12T08:54:47.405Z,102128.28
2023-02-12T08:57:15.169Z,102122.81
2023-02-12T08:59:43.506Z,102125.25
2023-02-12T09:02:11.777Z,102132.91
2023-02-12T09:04:40.346Z,102138.84
2023-02-12T09:07:10.733Z,102141.28
2023-02-12T09:09:38.644Z,102140.06
2023-02-12T09:12:06.768Z,102132.78
2023-02-12T09:14:35.773Z,102137.97
2023-02-12T09:17:03.537Z,102136.00
2023-02-12T09:19:31.300Z,102141.22
2023-02-12T09:21:59.276Z,102148.13
2023-02-12T09:24:28.330Z,102148.72
2023-02-12T09:26:56.398Z,102151.09
2023-02-12T09:29:24.264Z,102143.78
2023-02-12T09:31:52.253Z,102141.69
2023-02-12T09:34:20.232Z,102136.09
2023-02-12T09:36:49.223Z,102142.88
2023-02-12T09:39:17.092Z,102147.84
2023-02-12T09:41:44.857Z,102149.09
2023-02-12T09:44:12.791Z,102144.31
2023-02-12T09:46:40.672Z,102142.06
2023-02-12T09:49:08.824Z,102137.16
2023-02-12T09:51:37.213Z,102143.88
2023-02-12T09:54:05.023Z,102148.84
2023-02-12T09:56:32.816Z,102145.22
2023-02-12T09:59:01.051Z,102138.25
2023-02-12T10:01:29.452Z,102146.97
2023-02-12T10:03:57.615Z,102139.78
2023-02-12T10:06:25.619Z,102144.69
2023-02-12T10:08:53.376Z,102138.78
2023-02-12T10:11:21.225Z,102136.97
2023-02-12T10:13:49.487Z,102142.25
2023-02-12T10:16:17.613Z,102131.78
2023-02-12T10:18:45.470Z,102147.25
2023-02-12T10:21:13.937Z,102135.56
2023-02-12T10:23:41.852Z,102141.13
2023-02-12T10:26:10.058Z,102142.94
2023-02-12T10:28:38.804Z,102146.41
2023-02-12T10:31:06.910Z,102141.56
2023-02-12T10:33:36.449Z,102144.06
2023-02-12T10:36:05.769Z,102141.31
2023-02-12T10:38:34.309Z,102142.81
2023-02-12T10:41:03.054Z,102140.09
2023-02-12T10:43:31.479Z,102131.06
2023-02-12T10:45:59.304Z,102139.69
2023-02-12T10:48:27.182Z,102128.06
2023-02-12T10:50:55.709Z,102121.09
2023-02-12T10:53:23.961Z,102128.38
2023-02-12T10:55:52.027Z,102129.47
2023-02-12T10:58:20.051Z,102134.16
2023-02-12T11:00:48.440Z,102135.44
2023-02-12T11:03:16.925Z,102126.91
2023-02-12T11:05:45.232Z,102130.84
2023-02-12T11:08:13.120Z,102122.41
2023-02-12T11:10:41.069Z,102124.63
2023-02-12T11:13:09.204Z,102122.34
2023-02-12T11:15:37.603Z,102128.03
2023-02-12T11:18:06.057Z,102124.09
2023-02-12T11:20:34.149Z,102124.31
2023-02-12T11:23:02.113Z,102114.78
2023-02-12T11:25:30.030Z,102110.47
2023-02-12T11:27:58.453Z,102107.09
2023-02-12T11:30:26.607Z,102106.50
2023-02-12T11:32:54.478Z,102111.97
2023-02-12T11:35:26.121Z,102108.59
2023-02-12T11:37:54.028Z,102112.25
2023-02-12T11:40:22.139Z,102116.84
2023-02-12T11:42:50.623Z,102114.41
2023-02-12T11:45:18.724Z,102111.00
2023-02-12T11:47:47.472Z,102108.50
2023-02-12T11:50:15.815Z,102105.19
2023-02-12T11:52:44.179Z,102110.66
2023-02-12T11:55:12.348Z,102110.78
2023-02-12T11:57:40.274Z,102107.31
2023-02-12T12:00:08.146Z,102111.91
2023-02-12T12:02:38.450Z,102105.88
2023-02-12T12:05:06.923Z,102098.88
2023-02-12T12:07:34.816Z,102099.75
2023-02-12T12:10:02.800Z,102101.53
2023-02-12T12:12:31.132Z,102097.94
2023-02-12T12:15:16.792Z,102090.16
2023-02-12T12:18:01.887Z,102085.75
2023-02-12T12:20:30.077Z,102083.16
2023-02-12T12:22:58.324Z,102080.50
2023-02-12T12:25:27.099Z,102078.78
2023-02-12T12:28:10.244Z,102076.09
2023-02-12T12:30:38.530Z,102074.31
2023-02-12T12:33:06.548Z,102073.38
2023-02-12T12:35:34.980Z,102069.78
2023-02-12T12:38:03.230Z,102062.66
2023-02-12T12:40:31.563Z,102063.50
2023-02-12T12:42:59.920Z,102063.50
2023-02-12T12:45:27.914Z,102057.13
2023-02-12T12:47:55.783Z,102071.19
2023-02-12T12:50:23.706Z,102061.31
2023-02-12T12:52:51.938Z,102056.75
2023-02-12T12:55:19.762Z,102051.38
2023-02-12T12:57:47.988Z,102051.31
2023-02-12T13:00:18.062Z,102048.66
2023-02-12T13:02:47.543Z,102047.78
2023-02-12T13:05:15.440Z,102042.50
2023-02-12T13:07:43.760Z,102038.19
2023-02-12T13:10:11.721Z,102031.06
2023-02-12T13:12:40.274Z,102035.50
2023-02-12T13:15:08.398Z,102033.78
2023-02-12T13:17:37.254Z,102033.00
2023-02-12T13:20:05.397Z,102023.28
2023-02-12T13:22:33.446Z,102023.34
2023-02-12T13:25:01.219Z,102023.50
2023-02-12T13:27:28.998Z,102028.94
2023-02-12T13:29:57.133Z,102022.06
2023-02-12T13:32:25.419Z,102024.84
2023-02-12T13:34:53.364Z,102025.88
2023-02-12T13:37:21.784Z,102027.72
2023-02-12T13:39:50.094Z,102023.31
2023-02-12T13:42:18.169Z,102021.59
2023-02-12T13:44:46.353Z,102025.19
2023-02-12T13:47:14.389Z,102031.41
2023-02-12T13:49:43.109Z,102025.19
2023-02-12T13:52:11.183Z,102023.41
2023-02-12T13:54:39.098Z,102023.47
2023-02-12T13:57:07.590Z,102025.19
2023-02-12T13:59:35.640Z,102025.19
2023-02-12T14:02:04.166Z,102024.31
2023-02-12T14:04:32.272Z,102025.34
2023-02-12T14:07:01.398Z,102021.81
2023-02-12T14:09:30.208Z,102029.84
2023-02-12T14:11:58.027Z,102018.41
2023-02-12T14:14:26.511Z,102027.34
2023-02-12T14:16:54.542Z,102015.81
2023-02-12T14:19:22.377Z,102023.00
2023-02-12T14:21:52.260Z,102023.06
2023-02-12T14:24:20.173Z,102020.50
2023-02-12T14:26:48.392Z,102032.09
2023-02-12T14:29:16.357Z,102025.00
2023-02-12T14:31:44.486Z,102018.84
2023-02-12T14:34:12.812Z,102027.75
2023-02-12T14:36:41.802Z,102024.22
2023-02-12T14:39:10.407Z,102024.28
2023-02-12T14:41:43.238Z,102026.94
2023-02-12T14:44:11.192Z,102027.03
2023-02-12T14:46:39.133Z,102034.06
2023-02-12T14:49:07.331Z,102033.19
2023-02-12T14:51:35.594Z,102024.44
2023-02-12T14:54:04.817Z,102024.44
2023-02-12T14:56:32.902Z,102021.81
2023-02-12T14:59:00.981Z,102023.63
2023-02-12T15:01:29.006Z,102022.84
2023-02-12T15:03:57.375Z,102017.59
2023-02-12T15:06:27.988Z,102023.81
2023-02-12T15:08:55.915Z,102022.94
2023-02-12T15:11:24.152Z,102019.47
2023-02-12T15:13:52.093Z,102028.41
2023-02-12T15:16:22.143Z,102014.28
2023-02-12T15:18:50.293Z,102009.88
2023-02-12T15:21:20.879Z,102014.41
2023-02-12T15:23:48.798Z,102010.03
2023-02-12T15:26:17.503Z,102011.03
2023-02-12T15:28:45.687Z,102001.31
2023-02-12T15:31:13.754Z,102009.38
2023-02-12T15:33:41.775Z,102001.47
2023-02-12T15:36:09.936Z,101994.47
2023-02-12T15:38:37.885Z,101998.13
2023-02-12T15:41:07.263Z,102006.16
2023-02-12T15:43:35.609Z,102001.84
2023-02-12T15:46:03.681Z,102002.78
2023-02-12T15:48:33.375Z,102002.94
2023-02-12T15:51:01.208Z,101995.94
2023-02-12T15:53:30.971Z,101993.28
2023-02-12T15:55:59.031Z,101997.81
2023-02-12T15:58:27.153Z,101993.47
2023-02-12T16:00:55.221Z,101990.88
2023-02-12T16:03:23.351Z,101991.03
2023-02-12T16:05:51.328Z,101985.81
2023-02-12T16:08:19.125Z,101994.72
2023-02-12T16:10:48.352Z,101991.31
2023-02-12T16:13:16.533Z,101991.41
2023-02-12T16:15:44.650Z,101984.38
2023-02-12T16:18:13.392Z,101985.38
2023-02-12T16:20:42.003Z,101985.41
2023-02-12T16:23:09.977Z,101997.94
2023-02-12T16:25:39.435Z,101994.44
2023-02-12T16:28:07.232Z,101996.31
2023-02-12T16:30:35.704Z,101995.53
2023-02-12T16:33:03.727Z,101994.72
2023-02-12T16:35:31.698Z,102002.75
2023-02-12T16:37:59.756Z,102001.97
2023-02-12T16:40:27.919Z,102002.91
2023-02-12T16:42:56.350Z,102002.06
2023-02-12T16:45:24.210Z,102003.94
2023-02-12T16:47:52.256Z,102001.34
2023-02-12T16:50:20.200Z,101997.88
2023-02-12T16:52:48.460Z,102004.97
2023-02-12T16:55:16.908Z,102002.41
2023-02-12T16:57:44.731Z,102006.00
2023-02-12T17:00:12.626Z,102008.66
2023-02-12T17:02:40.653Z,102011.38
2023-02-12T17:05:09.790Z,102016.72
2023-02-12T17:07:37.977Z,102021.25
2023-02-12T17:10:05.985Z,102021.25
2023-02-12T17:12:33.980Z,102021.25
2023-02-12T17:15:03.046Z,102023.13
2023-02-12T17:17:31.027Z,102015.19
2023-02-12T17:19:59.277Z,102021.38
2023-02-12T17:22:27.203Z,102017.06
2023-02-12T17:24:55.353Z,102024.09
2023-02-12T17:27:23.441Z,102023.22
2023-02-12T17:29:51.374Z,102026.81
2023-02-12T17:32:19.839Z,102031.28
2023-02-12T17:34:49.198Z,102026.88
2023-02-12T17:37:17.716Z,102026.00
2023-02-12T17:39:46.096Z,102033.09
2023-02-12T17:42:14.065Z,102032.31
2023-02-12T17:44:42.188Z,102029.66
2023-02-12T17:47:10.186Z,102036.78
2023-02-12T17:49:40.145Z,102042.09
2023-02-12T17:52:08.178Z,102035.03
2023-02-12T17:54:36.169Z,102039.53
2023-02-12T17:57:04.331Z,102031.56
2023-02-12T17:59:32.687Z,102037.81
2023-02-12T18:02:00.850Z,102041.41
2023-02-12T18:04:29.128Z,102037.03
2023-02-12T18:06:57.114Z,102034.34
2023-02-12T18:09:25.385Z,102039.69
2023-02-12T18:11:53.393Z,102041.50
2023-02-12T18:14:21.203Z,102045.97
2023-02-12T18:16:49.353Z,102038.06
2023-02-12T18:19:17.177Z,102040.72
2023-02-12T18:21:45.802Z,102046.94
2023-02-12T18:24:13.771Z,102042.53
2023-02-12T18:26:41.779Z,102042.56
2023-02-12T18:29:10.404Z,102048.81
2023-02-12T18:31:38.584Z,102046.16
2023-02-12T18:34:07.072Z,102040.88
2023-02-12T18:36:35.041Z,102040.03
2023-02-12T18:39:03.035Z,102040.94
2023-02-12T18:41:30.864Z,102042.75
2023-02-12T18:43:59.020Z,102035.72
2023-02-12T18:46:27.425Z,102040.16
2023-02-12T18:48:55.362Z,102039.31
2023-02-12T18:51:23.408Z,102040.19
2023-02-12T18:53:51.456Z,102041.13
2023-02-12T18:56:19.394Z,102042.84
2023-02-12T18:58:47.618Z,102040.28
2023-02-12T19:01:15.735Z,102042.94
2023-02-12T19:03:43.694Z,102043.88
2023-02-12T19:06:11.964Z,102039.44
2023-02-12T19:08:39.900Z,102037.72
2023-02-12T19:11:08.344Z,102039.53
2023-02-12T19:13:36.284Z,102039.53
2023-02-12T19:16:04.400Z,102042.19
2023-02-12T19:18:32.401Z,102037.81
2023-02-12T19:21:00.220Z,102048.34
2023-02-12T19:23:28.185Z,102040.47
2023-02-12T19:25:56.096Z,102042.25
2023-02-12T19:28:24.490Z,102041.44
2023-02-12T19:30:52.935Z,102042.38
2023-02-12T19:33:20.956Z,102035.34
2023-02-12T19:35:49.160Z,102043.34
2023-02-12T19:38:19.229Z,102042.47
2023-02-12T19:40:47.169Z,102048.66
2023-02-12T19:43:15.515Z,102048.66
2023-02-12T19:45:43.405Z,102045.13
2023-02-12T19:48:11.852Z,102044.28
2023-02-12T19:50:40.175Z,102046.94
2023-02-12T19:53:08.512Z,102040.75
2023-02-12T19:55:36.588Z,102049.63
2023-02-12T19:58:06.358Z,102043.44
2023-02-12T20:00:34.600Z,102039.94
2023-02-12T20:03:02.435Z,102032.91
2023-02-12T20:05:30.353Z,102040.00
2023-02-12T20:07:58.556Z,102036.50
2023-02-12T20:10:26.510Z,102039.16
2023-02-12T20:12:55.193Z,102034.72
2023-02-12T20:15:25.859Z,102040.97
2023-02-12T20:17:53.660Z,102033.94
2023-02-12T20:20:21.811Z,102038.31
2023-02-12T20:22:49.821Z,102038.31
2023-02-12T20:25:17.774Z,102043.72
2023-02-12T20:27:45.690Z,102049.06
2023-02-12T20:30:13.797Z,102038.44
2023-02-12T20:32:42.943Z,102038.50
2023-02-12T20:35:11.243Z,102036.78
2023-02-12T20:37:39.505Z,102030.66
2023-02-12T20:40:07.394Z,102031.50
2023-02-12T20:42:35.341Z,102020.09
2023-02-12T20:45:03.826Z,102024.53
2023-02-12T20:47:31.747Z,102023.66
2023-02-12T20:49:59.965Z,102026.31
2023-02-12T20:52:28.053Z,102027.31
2023-02-12T20:54:55.956Z,102023.78
2023-02-12T20:57:24.420Z,102014.03
2023-02-12T20:59:52.388Z,102014.03
2023-02-12T21:02:20.842Z,102023.78
2023-02-12T21:04:48.672Z,102021.13
2023-02-12T21:07:16.689Z,102014.03
2023-02-12T21:09:44.817Z,102010.53
2023-02-12T21:12:12.757Z,102017.59
2023-02-12T21:14:40.926Z,102015.84
2023-02-12T21:17:09.198Z,102020.25
2023-02-12T21:19:37.154Z,102024.69
2023-02-12T21:22:05.061Z,102020.31
2023-02-12T21:24:34.141Z,102013.28
2023-02-12T21:27:02.399Z,102015.94
2023-02-12T21:29:33.459Z,102015.09
2023-02-12T21:32:01.929Z,102010.69
2023-02-12T21:34:29.878Z,102012.44
2023-02-12T21:36:57.917Z,102020.38
2023-02-12T21:39:27.969Z,102010.69
2023-02-12T21:41:56.020Z,102015.13
2023-02-12T21:44:24.182Z,102009.81
2023-02-12T21:46:52.395Z,102017.78
2023-02-12T21:49:25.183Z,102001.84
2023-02-12T21:51:53.235Z,102003.63
2023-02-12T21:54:20.986Z,102000.13
2023-02-12T21:56:48.967Z,102006.28
2023-02-12T21:59:17.211Z,102008.09
2023-02-12T22:01:44.991Z,102003.72
2023-02-12T22:04:13.256Z,102007.22
2023-02-12T22:06:41.134Z,101995.75
2023-02-12T22:09:08.945Z,102004.63
2023-02-12T22:11:36.961Z,102000.19
2023-02-12T22:14:05.372Z,102009.94
2023-02-12T22:16:33.798Z,102011.69
2023-02-12T22:19:02.083Z,102002.84
2023-02-12T22:21:30.103Z,102001.06
2023-02-12T22:23:59.671Z,102004.63
2023-02-12T22:26:27.669Z,101993.16
2023-02-12T22:28:55.750Z,101998.44
2023-02-12T22:31:24.347Z,101993.16
2023-02-12T22:33:52.274Z,101993.16
2023-02-12T22:36:22.052Z,101993.16
2023-02-12T22:38:49.920Z,101996.72
2023-02-12T22:41:17.762Z,101992.34
2023-02-12T22:43:45.847Z,101997.56
2023-02-12T22:46:13.582Z,101993.16
2023-02-12T22:48:41.560Z,101993.19
2023-02-12T22:51:09.240Z,101994.91
2023-02-12T22:53:36.931Z,101988.81
2023-02-12T22:56:04.669Z,101990.53
2023-02-12T22:58:32.743Z,101995.84
2023-02-12T23:01:00.633Z,101992.25
2023-02-12T23:03:28.599Z,101992.34
2023-02-12T23:05:56.740Z,101994.06
2023-02-12T23:08:24.497Z,101995.84
2023-02-12T23:10:52.265Z,101992.25
2023-02-12T23:13:29.182Z,101995.78
2023-02-12T23:15:58.142Z,101991.41
2023-02-12T23:18:25.852Z,101997.56
2023-02-12T23:20:53.593Z,102001.16
2023-02-12T23:23:21.589Z,102003.00
2023-02-12T23:25:49.318Z,102006.59
2023-02-12T23:28:17.531Z,102003.06
2023-02-12T23:30:45.399Z,101994.25
2023-02-12T23:33:13.243Z,101991.59
2023-02-12T23:35:40.928Z,101995.09
2023-02-12T23:38:08.823Z,102002.22
2023-02-12T23:40:36.797Z,101990.72
2023-02-12T23:43:04.813Z,101996.91
2023-02-12T23:45:32.532Z,101995.19
2023-02-12T23:48:01.931Z,101999.56
2023-02-12T23:50:29.586Z,101996.06
2023-02-12T23:52:57.632Z,101986.38
2023-02-12T23:55:25.303Z,101982.88
2023-02-12T23:57:53.009Z,101976.69
